createdAt,value
2022-12-03T00:06:22.641Z,1.5
2022-12-03T00:16:23.612Z,1.5
2022-12-03T00:26:24.321Z,1.5
2022-12-03T00:36:25.366Z,1.6
2022-12-03T00:56:26.151Z,1.6
2022-12-03T01:06:26.763Z,1.6
2022-12-03T01:16:27.318Z,1.6
2022-12-03T01:26:27.526Z,1.6
2022-12-03T01:36:28.380Z,1.6
2022-12-03T01:46:28.775Z,1.6
2022-12-03T01:56:29.707Z,1.6
2022-12-03T02:16:30.581Z,1.6
2022-12-03T02:26:31.241Z,1.5
2022-12-03T02:36:32.164Z,1.5
2022-12-03T02:46:32.278Z,1.5
2022-12-03T02:56:32.640Z,1.4
2022-12-03T03:06:32.977Z,1.5
2022-12-03T03:16:33.582Z,1.4
2022-12-03T03:36:34.358Z,1.4
2022-12-03T03:46:34.599Z,1.4
2022-12-03T03:56:35.064Z,1.3
2022-12-03T04:06:36.068Z,1.3
2022-12-03T04:16:36.585Z,1.3
2022-12-03T04:26:36.919Z,1.3
2022-12-03T04:36:37.407Z,1.1
2022-12-03T04:56:38.772Z,1.1
2022-12-03T05:16:39.623Z,1.1
2022-12-03T05:26:40.481Z,1.1
2022-12-03T05:46:42.284Z,1.1
2022-12-03T05:56:43.083Z,1.1
2022-12-03T06:06:43.902Z,1
2022-12-03T06:16:44.468Z,1
2022-12-03T06:19:22.796Z,1
2022-12-03T06:26:52.697Z,0.9
2022-12-03T06:36:52.948Z,0.9
2022-12-03T06:46:53.229Z,0.8
2022-12-03T07:06:54.162Z,0.7
2022-12-03T07:16:55.094Z,0.7
2022-12-03T07:46:56.119Z,0.8
2022-12-03T07:57:01.327Z,0.9
2022-12-03T08:06:57.390Z,0.9
2022-12-03T08:16:58.438Z,0.9
2022-12-03T08:36:59.586Z,0.9
2022-12-03T08:47:00.363Z,0.9
2022-12-03T08:57:00.673Z,1
2022-12-03T09:07:01.608Z,0.9
2022-12-03T09:17:02.117Z,1
2022-12-03T09:27:02.390Z,0.9
2022-12-03T09:37:03.004Z,1
2022-12-03T09:47:03.653Z,1
2022-12-03T09:57:04.488Z,1.2
2022-12-03T10:07:04.641Z,1.1
2022-12-03T10:17:05.336Z,1.1
2022-12-03T10:37:06.212Z,1.3
2022-12-03T10:47:06.599Z,1.3
2022-12-03T10:57:07.396Z,1.3
2022-12-03T11:07:07.701Z,1.3
2022-12-03T11:17:08.244Z,1.4
2022-12-03T11:27:08.646Z,1.3
2022-12-03T11:37:09.272Z,1.3
2022-12-03T11:47:09.938Z,1.4
2022-12-03T11:57:10.816Z,1.4
2022-12-03T12:07:11.394Z,1.3
2022-12-03T12:17:11.700Z,1.4
2022-12-03T12:27:12.003Z,1.4
2022-12-03T12:37:12.967Z,1.4
2022-12-03T12:47:13.780Z,1.4
2022-12-03T12:57:14.034Z,1.5
2022-12-03T13:07:14.499Z,1.4
2022-12-03T13:17:15.228Z,1.5
2022-12-03T13:27:15.927Z,1.5
2022-12-03T13:37:16.514Z,1.4
2022-12-03T13:47:16.917Z,1.4
2022-12-03T13:57:17.929Z,1.5
2022-12-03T14:07:18.707Z,1.4
2022-12-03T14:17:19.745Z,1.5
2022-12-03T14:37:21.178Z,1.4
2022-12-03T14:47:21.293Z,1.4
2022-12-03T14:57:21.485Z,1.4
2022-12-03T15:07:22.382Z,1.3
2022-12-03T15:17:29.687Z,1.2
2022-12-03T15:37:24.717Z,1.2
2022-12-03T15:47:25.160Z,1.3
2022-12-03T15:57:26.137Z,1.2
2022-12-03T16:07:26.860Z,1.2
2022-12-03T16:17:27.092Z,1.1
2022-12-03T16:37:28.640Z,1.2
2022-12-03T16:47:33.542Z,1.2
2022-12-03T16:57:33.591Z,1.1
2022-12-03T17:07:30.651Z,1
2022-12-03T17:17:31.183Z,1
2022-12-03T17:37:32.246Z,0.9
2022-12-03T17:47:33.214Z,0.9
2022-12-03T17:57:33.328Z,0.9
2022-12-03T18:17:33.774Z,0.8
2022-12-03T18:27:34.595Z,0.8
2022-12-03T18:47:36.180Z,0.8
2022-12-03T18:57:36.776Z,0.8
2022-12-03T19:07:37.970Z,0.8
2022-12-03T19:17:38.644Z,0.7
2022-12-03T19:27:39.409Z,0.7
2022-12-03T19:37:40.177Z,0.6
2022-12-03T19:47:41.265Z,0.7
2022-12-03T19:57:42.278Z,0.6
2022-12-03T20:07:43.389Z,0.6
2022-12-03T20:17:44.171Z,0.6
2022-12-03T20:27:45.086Z,0.6
2022-12-03T20:37:45.991Z,0.6
2022-12-03T20:47:46.331Z,0.6
2022-12-03T20:57:46.645Z,0.6
2022-12-03T21:07:47.446Z,0.6
2022-12-03T21:17:47.779Z,0.7
2022-12-03T21:27:48.269Z,0.6
2022-12-03T21:37:49.139Z,0.5
2022-12-03T21:47:49.582Z,0.6
2022-12-03T21:57:49.857Z,0.6
2022-12-03T22:07:50.155Z,0.6
2022-12-03T22:17:51.135Z,0.6
2022-12-03T22:27:51.751Z,0.6
2022-12-03T22:47:52.896Z,0.5
2022-12-03T22:57:53.851Z,0.6
2022-12-03T23:07:54.970Z,0.6
2022-12-03T23:17:55.486Z,0.5
2022-12-03T23:27:56.506Z,0.5
2022-12-03T23:37:57.034Z,0.6
2022-12-03T23:47:58.390Z,0.6
